Wetterdaten: Woche 10.04.17 - 16.04.17 (KW15)
Datum Zeit Temp. A. Feuchte A. Luftdruck Regen Wind Richtung Sonnenschein ET UV Solar Taupunkt Windchill Windben Empfang
10.04.2017 00:00 7,6 C 84 % 1021,8 hPa 0,0 l/m 0,2 km/h (0 Bft) S-SW 0,00 h 0,000 mm 0,0 UV-I 0 W/m 5,2 C 7,6 C 1,0 km/h (0 Bft) 97,63 %
10.04.2017 01:00 6,6 C 89 % 1021,5 hPa 0,0 l/m 0,7 km/h (0 Bft) S-SW 0,00 h 0,000 mm 0,0 UV-I 0 W/m 4,9 C 6,6 C 1,6 km/h (1 Bft) 97,98 %
10.04.2017 02:00 6,1 C 91 % 1021,1 hPa 0,0 l/m 1,2 km/h (1 Bft) S-SW 0,00 h 0,000 mm 0,0 UV-I 0 W/m 4,7 C 6,1 C 2,2 km/h (1 Bft) 97,09 %
10.04.2017 03:00 5,8 C 92 % 1020,7 hPa 0,0 l/m 1,3 km/h (1 Bft) S-SW 0,00 h 0,000 mm 0,0 UV-I 0 W/m 4,6 C 5,8 C 2,2 km/h (1 Bft) 94,68 %
10.04.2017 04:00 5,4 C 93 % 1020,5 hPa 0,0 l/m 1,3 km/h (1 Bft) S-SW 0,00 h 0,000 mm 0,0 UV-I 0 W/m 4,4 C 5,4 C 2,5 km/h (1 Bft) 97,13 %
10.04.2017 05:00 4,9 C 94 % 1020,2 hPa 0,0 l/m 0,9 km/h (0 Bft) S-SW 0,00 h 0,000 mm 0,0 UV-I 0 W/m 4,0 C 4,9 C 1,5 km/h (1 Bft) 96,72 %
10.04.2017 06:00 4,7 C 94 % 1020,0 hPa 0,0 l/m 0,6 km/h (0 Bft) S-SW 0,43 h 0,000 mm 0,0 UV-I 22 W/m 3,9 C 4,7 C 1,4 km/h (1 Bft) 95,28 %
10.04.2017 07:00 5,7 C 95 % 1019,9 hPa 0,0 l/m 0,5 km/h (0 Bft) S-SW 1,00 h 0,000 mm 0,0 UV-I 127 W/m 4,9 C 5,7 C 1,0 km/h (0 Bft) 95,74 %
10.04.2017 08:00 8,4 C 88 % 1019,7 hPa 0,0 l/m 1,1 km/h (1 Bft) S-SW 1,00 h 0,051 mm 0,6 UV-I 291 W/m 6,6 C 8,4 C 2,6 km/h (1 Bft) 96,86 %
10.04.2017 09:00 10,8 C 83 % 1019,6 hPa 0,0 l/m 1,4 km/h (1 Bft) NO 1,00 h 0,127 mm 1,4 UV-I 464 W/m 7,9 C 10,8 C 3,6 km/h (1 Bft) 97,41 %
10.04.2017 10:00 13,2 C 75 % 1019,4 hPa 0,0 l/m 1,6 km/h (1 Bft) NO 1,00 h 0,228 mm 2,5 UV-I 611 W/m 8,9 C 13,2 C 3,7 km/h (1 Bft) 94,94 %
10.04.2017 11:00 15,8 C 67 % 1019,0 hPa 0,0 l/m 2,3 km/h (1 Bft) NO 1,00 h 0,305 mm 3,5 UV-I 715 W/m 9,7 C 15,8 C 5,2 km/h (1 Bft) 96,03 %
10.04.2017 12:00 17,9 C 62 % 1018,3 hPa 0,0 l/m 2,3 km/h (1 Bft) NW 1,00 h 0,381 mm 4,1 UV-I 767 W/m 10,6 C 17,8 C 4,7 km/h (1 Bft) 96,78 %
10.04.2017 13:00 19,7 C 58 % 1017,3 hPa 0,0 l/m 2,5 km/h (1 Bft) NW 1,00 h 0,432 mm 4,1 UV-I 759 W/m 11,2 C 19,7 C 5,7 km/h (1 Bft) 96,51 %
10.04.2017 14:00 20,9 C 54 % 1016,4 hPa 0,0 l/m 2,4 km/h (1 Bft) NW 1,00 h 0,457 mm 3,6 UV-I 718 W/m 11,1 C 20,9 C 5,4 km/h (1 Bft) 97,18 %
10.04.2017 15:00 22,6 C 46 % 1015,5 hPa 0,0 l/m 6,3 km/h (2 Bft) W 1,00 h 0,432 mm 2,5 UV-I 623 W/m 10,2 C 22,2 C 11,6 km/h (2 Bft) 96,33 %
10.04.2017 16:00 23,0 C 42 % 1014,7 hPa 0,0 l/m 6,6 km/h (2 Bft) W-SW 1,00 h 0,406 mm 1,5 UV-I 481 W/m 9,4 C 22,5 C 13,3 km/h (3 Bft) 96,14 %
10.04.2017 17:00 21,7 C 46 % 1014,1 hPa 0,0 l/m 3,3 km/h (1 Bft) W 0,47 h 0,331 mm 0,8 UV-I 193 W/m 9,5 C 21,7 C 6,6 km/h (2 Bft) 97,25 %
10.04.2017 18:00 20,3 C 45 % 1013,7 hPa 0,0 l/m 6,3 km/h (2 Bft) S-SW 0,13 h 0,152 mm 0,0 UV-I 68 W/m 8,1 C 20,0 C 10,8 km/h (2 Bft) 97,64 %
10.04.2017 19:00 18,3 C 50 % 1013,6 hPa 0,0 l/m 8,5 km/h (2 Bft) S-SW 0,63 h 0,102 mm 0,0 UV-I 44 W/m 7,5 C 17,3 C 14,5 km/h (3 Bft) 96,81 %
10.04.2017 20:00 16,5 C 57 % 1013,8 hPa 0,0 l/m 4,7 km/h (1 Bft) S 0,00 h 0,076 mm 0,0 UV-I 0 W/m 7,9 C 16,5 C 8,5 km/h (2 Bft) 94,01 %
10.04.2017 21:00 15,2 C 64 % 1014,0 hPa 0,0 l/m 6,9 km/h (2 Bft) S-SW 0,00 h 0,025 mm 0,0 UV-I 0 W/m 8,4 C 14,7 C 10,9 km/h (2 Bft) 96,23 %
10.04.2017 22:00 14,9 C 65 % 1014,2 hPa 0,0 l/m 8,9 km/h (2 Bft) S-SW 0,00 h 0,051 mm 0,0 UV-I 0 W/m 8,3 C 13,6 C 13,7 km/h (3 Bft) 97,95 %
10.04.2017 23:00 14,0 C 65 % 1014,0 hPa 0,0 l/m 6,5 km/h (2 Bft) S-SW 0,00 h 0,051 mm 0,0 UV-I 0 W/m 7,6 C 13,8 C 9,8 km/h (2 Bft) 97,95 %
11.04.2017 00:00 13,2 C 68 % 1013,7 hPa 0,0 l/m 6,1 km/h (2 Bft) S-SW 0,00 h 0,000 mm 0,0 UV-I 0 W/m 7,3 C 12,8 C 9,1 km/h (2 Bft) 96,34 %
11.04.2017 01:00 14,4 C 60 % 1014,6 hPa 0,0 l/m 11,5 km/h (2 Bft) W 0,00 h 0,025 mm 0,0 UV-I 0 W/m 6,8 C 11,9 C 18,1 km/h (3 Bft) 96,34 %
11.04.2017 02:00 14,1 C 67 % 1015,6 hPa 0,2 l/m 10,4 km/h (2 Bft) W-SW 0,00 h 0,051 mm 0,0 UV-I 0 W/m 8,0 C 11,9 C 16,5 km/h (3 Bft) 97,63 %
11.04.2017 03:00 12,4 C 81 % 1015,7 hPa 0,0 l/m 7,2 km/h (2 Bft) W 0,00 h 0,051 mm 0,0 UV-I 0 W/m 9,1 C 11,1 C 11,4 km/h (2 Bft) 97,90 %
11.04.2017 04:00 12,5 C 82 % 1016,1 hPa 0,0 l/m 13,3 km/h (3 Bft) W 0,00 h 0,025 mm 0,0 UV-I 0 W/m 9,4 C 8,9 C 20,8 km/h (4 Bft) 96,27 %
11.04.2017 05:00 11,9 C 83 % 1016,5 hPa 0,0 l/m 11,2 km/h (2 Bft) W 0,00 h 0,026 mm 0,0 UV-I 0 W/m 9,1 C 9,1 C 18,0 km/h (3 Bft) 96,99 %
11.04.2017 06:00 10,7 C 84 % 1017,2 hPa 0,0 l/m 11,3 km/h (2 Bft) W 0,03 h 0,025 mm 0,0 UV-I 12 W/m 8,1 C 7,8 C 18,1 km/h (3 Bft) 96,00 %
11.04.2017 07:00 10,3 C 80 % 1018,4 hPa 0,0 l/m 13,3 km/h (3 Bft) W 0,07 h 0,026 mm 0,0 UV-I 63 W/m 7,1 C 6,4 C 21,2 km/h (4 Bft) 96,32 %
11.04.2017 08:00 9,9 C 79 % 1019,4 hPa 0,0 l/m 12,0 km/h (2 Bft) W-SW 0,00 h 0,050 mm 0,0 UV-I 78 W/m 6,5 C 6,5 C 20,5 km/h (4 Bft) 94,56 %
11.04.2017 09:00 10,0 C 74 % 1020,1 hPa 0,0 l/m 12,3 km/h (3 Bft) W-SW 0,30 h 0,077 mm 1,0 UV-I 242 W/m 5,6 C 6,6 C 21,6 km/h (4 Bft) 98,01 %
11.04.2017 10:00 11,2 C 59 % 1020,9 hPa 0,0 l/m 14,4 km/h (3 Bft) W-SW 0,90 h 0,152 mm 2,2 UV-I 619 W/m 3,6 C 7,1 C 24,0 km/h (4 Bft) 98,19 %
11.04.2017 11:00 11,9 C 56 % 1021,4 hPa 0,0 l/m 15,1 km/h (3 Bft) W-SW 0,87 h 0,356 mm 2,9 UV-I 699 W/m 3,4 C 7,7 C 25,4 km/h (4 Bft) 97,65 %
11.04.2017 12:00 12,2 C 52 % 1021,7 hPa 0,0 l/m 15,6 km/h (3 Bft) W 1,00 h 0,406 mm 3,4 UV-I 765 W/m 2,7 C 7,7 C 26,2 km/h (4 Bft) 97,70 %
11.04.2017 13:00 12,3 C 51 % 1021,6 hPa 0,0 l/m 15,0 km/h (3 Bft) W 0,63 h 0,457 mm 2,6 UV-I 558 W/m 2,4 C 8,1 C 25,4 km/h (4 Bft) 94,52 %
11.04.2017 14:00 12,1 C 51 % 1021,3 hPa 0,0 l/m 14,2 km/h (3 Bft) W 0,77 h 0,356 mm 2,0 UV-I 420 W/m 2,3 C 8,1 C 23,5 km/h (4 Bft) 96,70 %
11.04.2017 15:00 12,8 C 50 % 1021,0 hPa 0,0 l/m 15,2 km/h (3 Bft) W-SW 0,93 h 0,279 mm 1,9 UV-I 498 W/m 2,6 C 8,5 C 24,9 km/h (4 Bft) 97,33 %
11.04.2017 16:00 13,1 C 50 % 1020,8 hPa 0,0 l/m 13,4 km/h (3 Bft) W-SW 0,80 h 0,330 mm 1,3 UV-I 419 W/m 2,8 C 9,7 C 21,6 km/h (4 Bft) 97,42 %
11.04.2017 17:00 13,1 C 50 % 1020,9 hPa 0,0 l/m 10,4 km/h (2 Bft) W 0,77 h 0,280 mm 0,7 UV-I 274 W/m 2,8 C 10,9 C 17,9 km/h (3 Bft) 96,18 %
11.04.2017 18:00 12,6 C 50 % 1021,1 hPa 0,0 l/m 7,6 km/h (2 Bft) W-SW 1,00 h 0,203 mm 0,0 UV-I 169 W/m 2,4 C 11,7 C 15,9 km/h (3 Bft) 95,44 %
11.04.2017 19:00 11,4 C 53 % 1021,3 hPa 0,0 l/m 5,0 km/h (1 Bft) W 0,63 h 0,127 mm 0,0 UV-I 31 W/m 2,1 C 11,2 C 10,0 km/h (2 Bft) 94,74 %
11.04.2017 20:00 10,1 C 56 % 1022,0 hPa 0,0 l/m 5,2 km/h (1 Bft) W 0,00 h 0,051 mm 0,0 UV-I 0 W/m 1,9 C 10,1 C 8,3 km/h (2 Bft) 96,36 %
11.04.2017 21:00 8,8 C 64 % 1022,6 hPa 0,0 l/m 5,1 km/h (1 Bft) SW 0,00 h 0,025 mm 0,0 UV-I 0 W/m 2,3 C 8,7 C 7,4 km/h (2 Bft) 96,28 %
11.04.2017 22:00 7,8 C 70 % 1022,6 hPa 0,0 l/m 5,8 km/h (2 Bft) SW 0,00 h 0,026 mm 0,0 UV-I 0 W/m 2,7 C 7,7 C 7,9 km/h (2 Bft) 97,55 %
11.04.2017 23:00 7,1 C 75 % 1022,4 hPa 0,0 l/m 4,7 km/h (1 Bft) S-SW 0,00 h 0,025 mm 0,0 UV-I 0 W/m 3,0 C 7,0 C 7,2 km/h (2 Bft) 95,70 %
12.04.2017 00:00 6,4 C 81 % 1022,6 hPa 0,0 l/m 2,3 km/h (1 Bft) S-SW 0,00 h 0,000 mm 0,0 UV-I 0 W/m 3,4 C 6,4 C 3,6 km/h (1 Bft) 98,47 %
12.04.2017 01:00 6,4 C 83 % 1022,4 hPa 0,0 l/m 3,5 km/h (1 Bft) S-SW 0,00 h 0,000 mm 0,0 UV-I 0 W/m 3,7 C 6,4 C 5,7 km/h (1 Bft) 97,01 %
12.04.2017 02:00 6,1 C 85 % 1021,9 hPa 0,0 l/m 1,4 km/h (1 Bft) S-SW 0,00 h 0,000 mm 0,0 UV-I 0 W/m 3,8 C 6,1 C 3,0 km/h (1 Bft) 96,93 %
12.04.2017 03:00 5,4 C 88 % 1021,6 hPa 0,0 l/m 1,2 km/h (1 Bft) S-SW 0,00 h 0,000 mm 0,0 UV-I 0 W/m 3,6 C 5,4 C 2,6 km/h (1 Bft) 96,13 %
12.04.2017 04:00 5,2 C 88 % 1021,2 hPa 0,0 l/m 2,5 km/h (1 Bft) S-SW 0,00 h 0,000 mm 0,0 UV-I 0 W/m 3,3 C 5,2 C 4,7 km/h (1 Bft) 98,44 %
12.04.2017 05:00 4,5 C 89 % 1021,0 hPa 0,0 l/m 3,1 km/h (1 Bft) S-SW 0,00 h 0,000 mm 0,0 UV-I 0 W/m 2,9 C 4,5 C 4,9 km/h (1 Bft) 96,72 %
12.04.2017 06:00 4,1 C 91 % 1020,9 hPa 0,0 l/m 3,3 km/h (1 Bft) S-SW 0,03 h 0,000 mm 0,0 UV-I 17 W/m 2,8 C 4,1 C 5,1 km/h (1 Bft) 95,19 %
12.04.2017 07:00 4,5 C 91 % 1020,9 hPa 0,0 l/m 0,4 km/h (0 Bft) S-SW 0,00 h 0,000 mm 0,0 UV-I 84 W/m 3,1 C 4,5 C 1,2 km/h (1 Bft) 95,78 %
12.04.2017 08:00 5,9 C 88 % 1020,9 hPa 0,0 l/m 1,4 km/h (1 Bft) S-SW 0,10 h 0,025 mm 0,5 UV-I 179 W/m 4,0 C 5,9 C 3,1 km/h (1 Bft) 98,13 %
12.04.2017 09:00 7,7 C 81 % 1020,6 hPa 0,0 l/m 2,7 km/h (1 Bft) SW 1,00 h 0,077 mm 1,1 UV-I 390 W/m 4,7 C 7,7 C 5,0 km/h (1 Bft) 96,68 %
12.04.2017 10:00 9,6 C 72 % 1020,3 hPa 0,0 l/m 3,1 km/h (1 Bft) SW 1,00 h 0,177 mm 1,8 UV-I 491 W/m 4,9 C 9,6 C 6,4 km/h (2 Bft) 96,51 %
12.04.2017 11:00 11,6 C 63 % 1019,9 hPa 0,0 l/m 2,6 km/h (1 Bft) W-NW 1,00 h 0,229 mm 2,7 UV-I 622 W/m 4,7 C 11,6 C 5,9 km/h (2 Bft) 97,64 %
12.04.2017 12:00 12,9 C 59 % 1019,1 hPa 0,0 l/m 3,6 km/h (1 Bft) NW 1,00 h 0,305 mm 3,1 UV-I 610 W/m 5,2 C 12,9 C 7,3 km/h (2 Bft) 98,86 %
12.04.2017 13:00 14,2 C 56 % 1017,9 hPa 0,0 l/m 4,3 km/h (1 Bft) W 1,00 h 0,330 mm 3,1 UV-I 627 W/m 5,5 C 14,0 C 8,7 km/h (2 Bft) 97,26 %
12.04.2017 14:00 15,3 C 55 % 1016,7 hPa 0,0 l/m 3,5 km/h (1 Bft) NW 1,00 h 0,356 mm 2,9 UV-I 630 W/m 6,3 C 15,3 C 7,8 km/h (2 Bft) 97,91 %
12.04.2017 15:00 15,5 C 56 % 1015,5 hPa 0,0 l/m 2,7 km/h (1 Bft) NW 0,97 h 0,355 mm 2,0 UV-I 450 W/m 6,7 C 15,5 C 6,4 km/h (2 Bft) 95,84 %
12.04.2017 16:00 16,5 C 51 % 1014,5 hPa 0,0 l/m 2,4 km/h (1 Bft) NW 0,83 h 0,254 mm 1,5 UV-I 431 W/m 6,3 C 16,4 C 5,3 km/h (1 Bft) 96,19 %
12.04.2017 17:00 16,7 C 49 % 1013,6 hPa 0,0 l/m 2,8 km/h (1 Bft) W 0,57 h 0,254 mm 0,6 UV-I 243 W/m 6,0 C 16,7 C 5,7 km/h (1 Bft) 95,28 %
12.04.2017 18:00 16,3 C 49 % 1012,8 hPa 0,0 l/m 3,9 km/h (1 Bft) W 0,00 h 0,153 mm 0,0 UV-I 82 W/m 5,6 C 16,2 C 7,3 km/h (2 Bft) 97,67 %
12.04.2017 19:00 14,7 C 59 % 1012,1 hPa 0,0 l/m 1,1 km/h (1 Bft) SW 0,00 h 0,076 mm 0,0 UV-I 18 W/m 6,6 C 14,7 C 2,4 km/h (1 Bft) 96,31 %
12.04.2017 20:00 13,0 C 70 % 1011,7 hPa 0,0 l/m 2,8 km/h (1 Bft) SW 0,00 h 0,025 mm 0,0 UV-I 0 W/m 7,6 C 13,0 C 4,2 km/h (1 Bft) 97,50 %
12.04.2017 21:00 12,7 C 73 % 1011,5 hPa 0,0 l/m 0,4 km/h (0 Bft) SW 0,00 h 0,026 mm 0,0 UV-I 0 W/m 7,9 C 12,7 C 1,5 km/h (1 Bft) 94,88 %
12.04.2017 22:00 11,9 C 73 % 1011,2 hPa 0,0 l/m 2,2 km/h (1 Bft) SW 0,00 h 0,000 mm 0,0 UV-I 0 W/m 7,2 C 11,9 C 3,9 km/h (1 Bft) 97,80 %
12.04.2017 23:00 12,2 C 72 % 1011,1 hPa 0,0 l/m 6,6 km/h (2 Bft) S-SW 0,00 h 0,025 mm 0,0 UV-I 0 W/m 7,3 C 11,1 C 10,5 km/h (2 Bft) 97,54 %
13.04.2017 00:00 12,9 C 69 % 1011,0 hPa 0,0 l/m 12,3 km/h (3 Bft) SW 0,00 h 0,000 mm 0,0 UV-I 0 W/m 7,4 C 9,9 C 18,7 km/h (3 Bft) 97,92 %
13.04.2017 01:00 12,9 C 68 % 1010,3 hPa 0,0 l/m 12,6 km/h (3 Bft) SW 0,00 h 0,051 mm 0,0 UV-I 0 W/m 7,0 C 9,6 C 19,5 km/h (3 Bft) 95,65 %
13.04.2017 02:00 12,8 C 65 % 1010,2 hPa 0,0 l/m 10,4 km/h (2 Bft) W-SW 0,00 h 0,051 mm 0,0 UV-I 0 W/m 6,4 C 10,5 C 15,2 km/h (3 Bft) 97,10 %
13.04.2017 03:00 13,1 C 60 % 1010,0 hPa 0,0 l/m 12,2 km/h (2 Bft) W-SW 0,00 h 0,050 mm 0,0 UV-I 0 W/m 5,6 C 10,1 C 18,2 km/h (3 Bft) 97,70 %
13.04.2017 04:00 13,4 C 57 % 1009,8 hPa 0,0 l/m 16,4 km/h (3 Bft) W-SW 0,00 h 0,051 mm 0,0 UV-I 0 W/m 5,1 C 8,8 C 25,1 km/h (4 Bft) 98,12 %
13.04.2017 05:00 13,1 C 59 % 1009,7 hPa 0,0 l/m 16,4 km/h (3 Bft) W 0,00 h 0,076 mm 0,0 UV-I 0 W/m 5,2 C 8,5 C 25,0 km/h (4 Bft) 96,91 %
13.04.2017 06:00 12,4 C 63 % 1009,8 hPa 0,0 l/m 13,6 km/h (3 Bft) W-SW 0,00 h 0,077 mm 0,0 UV-I 8 W/m 5,7 C 8,7 C 20,4 km/h (4 Bft) 95,43 %
13.04.2017 07:00 11,8 C 69 % 1010,1 hPa 0,2 l/m 15,6 km/h (3 Bft) W-SW 0,00 h 0,076 mm 0,0 UV-I 20 W/m 6,3 C 7,2 C 22,8 km/h (4 Bft) 97,12 %
13.04.2017 08:00 11,4 C 76 % 1010,3 hPa 0,0 l/m 15,4 km/h (3 Bft) SW 0,00 h 0,076 mm 0,5 UV-I 117 W/m 7,2 C 6,7 C 22,8 km/h (4 Bft) 97,98 %
13.04.2017 09:00 11,9 C 74 % 1010,6 hPa 0,0 l/m 16,6 km/h (3 Bft) W-SW 0,10 h 0,102 mm 0,6 UV-I 150 W/m 7,5 C 6,9 C 25,0 km/h (4 Bft) 98,05 %
13.04.2017 10:00 10,6 C 80 % 1011,3 hPa 0,4 l/m 19,7 km/h (3 Bft) W-SW 0,00 h 0,127 mm 0,5 UV-I 79 W/m 7,3 C 4,4 C 32,0 km/h (5 Bft) 96,60 %
13.04.2017 11:00 11,0 C 78 % 1011,8 hPa 0,0 l/m 19,2 km/h (3 Bft) W-SW 0,00 h 0,076 mm 0,7 UV-I 105 W/m 7,3 C 5,2 C 30,7 km/h (5 Bft) 98,43 %
13.04.2017 12:00 9,8 C 84 % 1012,3 hPa 0,4 l/m 13,0 km/h (3 Bft) W-SW 0,00 h 0,101 mm 0,8 UV-I 131 W/m 7,2 C 5,9 C 22,4 km/h (4 Bft) 97,85 %
13.04.2017 13:00 9,9 C 84 % 1012,5 hPa 0,0 l/m 15,4 km/h (3 Bft) W-SW 0,13 h 0,077 mm 1,5 UV-I 261 W/m 7,4 C 4,9 C 23,9 km/h (4 Bft) 98,31 %
13.04.2017 14:00 12,1 C 75 % 1012,6 hPa 0,2 l/m 16,1 km/h (3 Bft) W-SW 0,53 h 0,152 mm 2,3 UV-I 418 W/m 7,8 C 7,3 C 25,4 km/h (4 Bft) 95,25 %
13.04.2017 15:00 12,2 C 73 % 1012,5 hPa 0,4 l/m 14,0 km/h (3 Bft) W-SW 0,23 h 0,279 mm 1,6 UV-I 199 W/m 7,4 C 8,5 C 22,6 km/h (4 Bft) 96,72 %
13.04.2017 16:00 10,8 C 81 % 1012,6 hPa 0,0 l/m 7,2 km/h (2 Bft) W 0,00 h 0,153 mm 0,6 UV-I 135 W/m 7,7 C 10,1 C 12,8 km/h (3 Bft) 97,95 %
13.04.2017 17:00 11,6 C 75 % 1012,4 hPa 0,0 l/m 6,7 km/h (2 Bft) W-SW 0,07 h 0,076 mm 0,6 UV-I 107 W/m 7,3 C 10,8 C 12,0 km/h (2 Bft) 97,17 %
13.04.2017 18:00 11,2 C 74 % 1012,5 hPa 0,0 l/m 8,7 km/h (2 Bft) W-SW 0,00 h 0,076 mm 0,0 UV-I 48 W/m 6,7 C 9,7 C 14,1 km/h (3 Bft) 94,69 %
13.04.2017 19:00 11,1 C 74 % 1012,7 hPa 0,0 l/m 7,5 km/h (2 Bft) SW 0,00 h 0,051 mm 0,0 UV-I 12 W/m 6,6 C 10,3 C 11,4 km/h (2 Bft) 96,85 %
13.04.2017 20:00 10,5 C 77 % 1013,3 hPa 0,0 l/m 7,8 km/h (2 Bft) SW 0,00 h 0,025 mm 0,0 UV-I 5 W/m 6,7 C 9,5 C 11,7 km/h (2 Bft) 95,93 %
13.04.2017 21:00 10,4 C 77 % 1013,9 hPa 0,0 l/m 7,2 km/h (2 Bft) SW 0,00 h 0,026 mm 0,0 UV-I 0 W/m 6,6 C 9,7 C 11,1 km/h (2 Bft) 97,79 %
13.04.2017 22:00 10,3 C 78 % 1013,8 hPa 0,0 l/m 7,0 km/h (2 Bft) SW 0,00 h 0,025 mm 0,0 UV-I 0 W/m 6,6 C 9,8 C 11,1 km/h (2 Bft) 94,02 %
13.04.2017 23:00 10,2 C 77 % 1013,9 hPa 0,0 l/m 6,2 km/h (2 Bft) SW 0,00 h 0,026 mm 0,0 UV-I 0 W/m 6,3 C 9,9 C 9,1 km/h (2 Bft) 98,41 %
14.04.2017 00:00 9,8 C 82 % 1014,0 hPa 0,0 l/m 4,3 km/h (1 Bft) SW 0,00 h 0,000 mm 0,0 UV-I 0 W/m 6,8 C 9,8 C 6,3 km/h (2 Bft) 96,81 %
14.04.2017 01:00 9,4 C 84 % 1014,0 hPa 0,0 l/m 4,3 km/h (1 Bft) W-SW 0,00 h 0,000 mm 0,0 UV-I 0 W/m 6,9 C 9,4 C 6,2 km/h (2 Bft) 97,87 %
14.04.2017 02:00 8,4 C 87 % 1013,7 hPa 0,0 l/m 4,3 km/h (1 Bft) SW 0,00 h 0,000 mm 0,0 UV-I 0 W/m 6,4 C 8,4 C 6,5 km/h (2 Bft) 94,91 %
14.04.2017 03:00 8,1 C 89 % 1013,7 hPa 0,0 l/m 5,0 km/h (1 Bft) SW 0,00 h 0,000 mm 0,0 UV-I 0 W/m 6,3 C 8,1 C 7,1 km/h (2 Bft) 98,42 %
14.04.2017 04:00 8,0 C 88 % 1013,8 hPa 0,0 l/m 4,8 km/h (1 Bft) SW 0,00 h 0,000 mm 0,0 UV-I 0 W/m 6,1 C 8,0 C 7,0 km/h (2 Bft) 96,72 %
14.04.2017 05:00 7,9 C 88 % 1014,0 hPa 0,0 l/m 4,5 km/h (1 Bft) W-SW 0,00 h 0,000 mm 0,0 UV-I 0 W/m 6,0 C 7,9 C 6,5 km/h (2 Bft) 97,50 %
14.04.2017 06:00 8,0 C 87 % 1014,3 hPa 0,0 l/m 4,8 km/h (1 Bft) S-SW 0,00 h 0,000 mm 0,0 UV-I 13 W/m 6,0 C 8,0 C 7,2 km/h (2 Bft) 95,47 %
14.04.2017 07:00 8,3 C 86 % 1014,7 hPa 0,0 l/m 3,0 km/h (1 Bft) W 0,00 h 0,025 mm 0,0 UV-I 38 W/m 6,2 C 8,3 C 4,6 km/h (1 Bft) 98,02 %
14.04.2017 08:00 9,0 C 84 % 1014,8 hPa 0,0 l/m 4,1 km/h (1 Bft) W-SW 0,00 h 0,026 mm 0,0 UV-I 80 W/m 6,5 C 9,0 C 6,3 km/h (2 Bft) 95,62 %
14.04.2017 09:00 9,5 C 82 % 1015,1 hPa 0,0 l/m 2,8 km/h (1 Bft) W-SW 0,00 h 0,051 mm 0,3 UV-I 86 W/m 6,5 C 9,5 C 4,9 km/h (1 Bft) 96,98 %
14.04.2017 10:00 9,7 C 82 % 1015,4 hPa 0,0 l/m 1,8 km/h (1 Bft) W 0,00 h 0,050 mm 0,7 UV-I 116 W/m 6,8 C 9,7 C 3,7 km/h (1 Bft) 95,35 %
14.04.2017 11:00 10,6 C 78 % 1015,5 hPa 0,0 l/m 4,7 km/h (1 Bft) W 0,00 h 0,051 mm 1,2 UV-I 235 W/m 6,8 C 10,4 C 8,8 km/h (2 Bft) 97,93 %
14.04.2017 12:00 11,5 C 73 % 1015,4 hPa 0,0 l/m 6,0 km/h (2 Bft) W-SW 0,20 h 0,127 mm 1,8 UV-I 339 W/m 6,9 C 11,1 C 10,8 km/h (2 Bft) 97,62 %
14.04.2017 13:00 13,0 C 67 % 1015,1 hPa 0,0 l/m 10,4 km/h (2 Bft) S-SW 0,93 h 0,178 mm 2,9 UV-I 513 W/m 7,0 C 10,7 C 16,5 km/h (3 Bft) 97,74 %
14.04.2017 14:00 13,7 C 61 % 1014,9 hPa 0,0 l/m 13,2 km/h (3 Bft) SW 1,00 h 0,330 mm 2,5 UV-I 491 W/m 6,4 C 10,3 C 21,0 km/h (4 Bft) 96,34 %
14.04.2017 15:00 13,7 C 59 % 1014,6 hPa 0,0 l/m 12,7 km/h (3 Bft) SW 0,17 h 0,305 mm 1,5 UV-I 312 W/m 5,7 C 10,5 C 19,4 km/h (3 Bft) 95,57 %
14.04.2017 16:00 13,7 C 58 % 1014,3 hPa 0,0 l/m 9,3 km/h (2 Bft) W 0,30 h 0,229 mm 1,0 UV-I 309 W/m 5,5 C 12,1 C 15,2 km/h (3 Bft) 96,37 %
14.04.2017 17:00 14,3 C 53 % 1014,1 hPa 0,0 l/m 9,4 km/h (2 Bft) W-SW 0,83 h 0,203 mm 0,7 UV-I 283 W/m 4,9 C 12,6 C 16,0 km/h (3 Bft) 97,31 %
14.04.2017 18:00 13,4 C 56 % 1013,9 hPa 0,0 l/m 5,1 km/h (1 Bft) W 0,13 h 0,203 mm 0,0 UV-I 104 W/m 4,8 C 13,0 C 9,7 km/h (2 Bft) 97,07 %
14.04.2017 19:00 12,4 C 62 % 1014,1 hPa 0,0 l/m 3,3 km/h (1 Bft) W 0,03 h 0,076 mm 0,0 UV-I 21 W/m 5,2 C 12,4 C 6,6 km/h (2 Bft) 95,94 %
14.04.2017 20:00 11,8 C 64 % 1014,6 hPa 0,0 l/m 3,0 km/h (1 Bft) W 0,00 h 0,026 mm 0,0 UV-I 5 W/m 5,1 C 11,8 C 4,8 km/h (1 Bft) 96,24 %
14.04.2017 21:00 11,0 C 69 % 1015,1 hPa 0,0 l/m 1,9 km/h (1 Bft) W-SW 0,00 h 0,025 mm 0,0 UV-I 0 W/m 5,5 C 11,0 C 3,8 km/h (1 Bft) 98,00 %
14.04.2017 22:00 10,3 C 74 % 1015,3 hPa 0,0 l/m 2,3 km/h (1 Bft) W-SW 0,00 h 0,025 mm 0,0 UV-I 0 W/m 5,9 C 10,3 C 4,7 km/h (1 Bft) 98,10 %
14.04.2017 23:00 10,1 C 75 % 1015,2 hPa 0,0 l/m 3,2 km/h (1 Bft) W-SW 0,00 h 0,000 mm 0,0 UV-I 0 W/m 5,9 C 10,1 C 6,0 km/h (2 Bft) 98,32 %
15.04.2017 00:00 9,8 C 76 % 1015,1 hPa 0,0 l/m 3,2 km/h (1 Bft) W-SW 0,00 h 0,025 mm 0,0 UV-I 0 W/m 5,8 C 9,8 C 6,0 km/h (2 Bft) 96,49 %
15.04.2017 01:00 9,2 C 80 % 1015,1 hPa 0,0 l/m 2,1 km/h (1 Bft) S 0,00 h 0,025 mm 0,0 UV-I 0 W/m 5,8 C 9,2 C 5,2 km/h (1 Bft) 97,15 %
15.04.2017 02:00 7,5 C 86 % 1014,9 hPa 0,0 l/m 2,1 km/h (1 Bft) S 0,00 h 0,000 mm 0,0 UV-I 0 W/m 5,3 C 7,5 C 4,5 km/h (1 Bft) 98,03 %
15.04.2017 03:00 7,7 C 86 % 1014,8 hPa 0,0 l/m 4,0 km/h (1 Bft) S-SW 0,00 h 0,000 mm 0,0 UV-I 0 W/m 5,5 C 7,7 C 6,3 km/h (2 Bft) 98,25 %
15.04.2017 04:00 7,8 C 85 % 1014,7 hPa 0,0 l/m 2,7 km/h (1 Bft) SW 0,00 h 0,000 mm 0,0 UV-I 0 W/m 5,6 C 7,8 C 5,7 km/h (1 Bft) 98,61 %
15.04.2017 05:00 8,1 C 85 % 1014,5 hPa 0,0 l/m 5,3 km/h (1 Bft) W-SW 0,00 h 0,000 mm 0,0 UV-I 0 W/m 5,7 C 7,9 C 9,3 km/h (2 Bft) 97,22 %
15.04.2017 06:00 8,0 C 84 % 1014,4 hPa 0,0 l/m 4,5 km/h (1 Bft) SW 0,08 h 0,000 mm 0,0 UV-I 20 W/m 5,5 C 8,1 C 7,8 km/h (2 Bft) 98,17 %
15.04.2017 07:00 8,0 C 85 % 1014,6 hPa 0,0 l/m 3,1 km/h (1 Bft) SW 0,00 h 0,025 mm 0,0 UV-I 74 W/m 5,6 C 8,0 C 5,6 km/h (1 Bft) 95,61 %
15.04.2017 08:00 9,3 C 81 % 1014,6 hPa 0,0 l/m 5,2 km/h (1 Bft) SW 0,17 h 0,051 mm 0,5 UV-I 166 W/m 6,2 C 9,2 C 9,7 km/h (2 Bft) 97,00 %
15.04.2017 09:00 10,8 C 76 % 1014,5 hPa 0,0 l/m 7,3 km/h (2 Bft) SW 0,00 h 0,076 mm 0,6 UV-I 145 W/m 6,7 C 10,1 C 12,1 km/h (2 Bft) 97,04 %
15.04.2017 10:00 11,4 C 70 % 1014,5 hPa 0,0 l/m 11,6 km/h (2 Bft) SW 0,00 h 0,052 mm 0,6 UV-I 108 W/m 6,2 C 8,5 C 17,6 km/h (3 Bft) 96,00 %
15.04.2017 11:00 12,9 C 65 % 1014,5 hPa 0,0 l/m 10,7 km/h (2 Bft) SW 0,27 h 0,102 mm 1,9 UV-I 435 W/m 6,5 C 10,5 C 17,1 km/h (3 Bft) 95,44 %
15.04.2017 12:00 14,3 C 59 % 1013,8 hPa 0,0 l/m 12,4 km/h (3 Bft) W-SW 0,30 h 0,254 mm 2,0 UV-I 376 W/m 6,3 C 11,4 C 21,5 km/h (4 Bft) 94,78 %
15.04.2017 13:00 14,7 C 57 % 1013,3 hPa 0,0 l/m 13,6 km/h (3 Bft) W 0,10 h 0,254 mm 1,7 UV-I 309 W/m 6,2 C 11,4 C 22,1 km/h (4 Bft) 97,22 %
15.04.2017 14:00 15,0 C 56 % 1012,9 hPa 0,0 l/m 13,9 km/h (3 Bft) W-SW 0,23 h 0,228 mm 1,7 UV-I 332 W/m 6,2 C 11,6 C 22,2 km/h (4 Bft) 96,48 %
15.04.2017 15:00 15,7 C 53 % 1012,4 hPa 0,0 l/m 13,2 km/h (3 Bft) W 0,07 h 0,254 mm 1,4 UV-I 283 W/m 6,2 C 12,7 C 21,1 km/h (4 Bft) 97,50 %
15.04.2017 16:00 13,8 C 69 % 1012,2 hPa 0,4 l/m 9,8 km/h (2 Bft) SW 0,00 h 0,229 mm 0,7 UV-I 172 W/m 8,0 C 12,0 C 15,5 km/h (3 Bft) 94,13 %
15.04.2017 17:00 13,6 C 68 % 1012,1 hPa 0,0 l/m 15,5 km/h (3 Bft) S-SW 0,23 h 0,127 mm 0,5 UV-I 187 W/m 7,8 C 9,4 C 24,0 km/h (4 Bft) 96,50 %
15.04.2017 18:00 11,9 C 76 % 1012,0 hPa 0,0 l/m 11,0 km/h (2 Bft) SW 0,00 h 0,152 mm 0,0 UV-I 57 W/m 7,9 C 9,2 C 17,8 km/h (3 Bft) 95,67 %
15.04.2017 19:00 12,1 C 76 % 1012,0 hPa 0,0 l/m 14,8 km/h (3 Bft) SW 0,10 h 0,051 mm 0,0 UV-I 19 W/m 8,0 C 7,8 C 22,5 km/h (4 Bft) 96,97 %
15.04.2017 20:00 11,7 C 77 % 1012,5 hPa 0,0 l/m 16,6 km/h (3 Bft) W-SW 0,00 h 0,051 mm 0,0 UV-I 0 W/m 7,7 C 6,6 C 25,6 km/h (4 Bft) 96,62 %
15.04.2017 21:00 11,0 C 82 % 1013,0 hPa 0,2 l/m 16,0 km/h (3 Bft) SW 0,00 h 0,051 mm 0,0 UV-I 0 W/m 8,0 C 6,0 C 23,7 km/h (4 Bft) 99,34 %
15.04.2017 22:00 10,4 C 86 % 1013,1 hPa 0,4 l/m 14,4 km/h (3 Bft) W-SW 0,00 h 0,025 mm 0,0 UV-I 0 W/m 8,2 C 5,9 C 21,8 km/h (4 Bft) 98,45 %
15.04.2017 23:00 10,0 C 88 % 1013,4 hPa 1,2 l/m 14,1 km/h (3 Bft) W-SW 0,00 h 0,025 mm 0,0 UV-I 0 W/m 8,1 C 5,6 C 21,5 km/h (4 Bft) 98,36 %
16.04.2017 00:00 9,4 C 92 % 1013,7 hPa 0,0 l/m 10,3 km/h (2 Bft) W-SW 0,00 h 0,000 mm 0,0 UV-I 0 W/m 8,1 C 6,8 C 15,7 km/h (3 Bft) 96,25 %
16.04.2017 01:00 9,3 C 91 % 1014,1 hPa 0,0 l/m 13,6 km/h (3 Bft) W-SW 0,00 h 0,000 mm 0,0 UV-I 0 W/m 7,9 C 5,0 C 20,7 km/h (4 Bft) 99,65 %
16.04.2017 02:00 9,0 C 90 % 1014,2 hPa 1,8 l/m 12,1 km/h (2 Bft) W 0,00 h 0,025 mm 0,0 UV-I 0 W/m 7,5 C 5,4 C 18,7 km/h (3 Bft) 98,18 %
16.04.2017 03:00 7,4 C 92 % 1014,4 hPa 1,8 l/m 10,9 km/h (2 Bft) W 0,00 h 0,026 mm 0,0 UV-I 0 W/m 6,1 C 4,4 C 19,0 km/h (3 Bft) 98,29 %
16.04.2017 04:00 6,7 C 92 % 1014,8 hPa 0,2 l/m 8,7 km/h (2 Bft) W 0,00 h 0,000 mm 0,0 UV-I 0 W/m 5,5 C 4,9 C 16,0 km/h (3 Bft) 96,27 %
16.04.2017 05:00 6,6 C 92 % 1015,0 hPa 0,0 l/m 10,8 km/h (2 Bft) SW 0,00 h 0,000 mm 0,0 UV-I 0 W/m 5,4 C 3,4 C 17,4 km/h (3 Bft) 99,40 %
16.04.2017 06:00 6,7 C 91 % 1015,4 hPa 0,2 l/m 14,7 km/h (3 Bft) SW 0,00 h 0,000 mm 0,0 UV-I 8 W/m 5,3 C 1,3 C 22,1 km/h (4 Bft) 97,78 %
16.04.2017 07:00 6,7 C 88 % 1016,0 hPa 0,0 l/m 14,9 km/h (3 Bft) SW 0,00 h 0,025 mm 0,0 UV-I 41 W/m 4,9 C 1,2 C 22,4 km/h (4 Bft) 98,35 %
16.04.2017 08:00 6,7 C 87 % 1016,4 hPa 0,0 l/m 16,2 km/h (3 Bft) W-SW 0,00 h 0,026 mm 0,4 UV-I 150 W/m 4,6 C 0,6 C 24,3 km/h (4 Bft) 95,68 %
16.04.2017 09:00 6,7 C 87 % 1016,8 hPa 0,0 l/m 11,9 km/h (2 Bft) W-SW 0,00 h 0,076 mm 0,5 UV-I 104 W/m 4,7 C 2,9 C 17,9 km/h (3 Bft) 99,58 %
16.04.2017 10:00 8,3 C 78 % 1016,7 hPa 0,0 l/m 14,5 km/h (3 Bft) W-SW 0,60 h 0,051 mm 1,5 UV-I 397 W/m 4,6 C 3,5 C 22,9 km/h (4 Bft) 98,22 %
16.04.2017 11:00 9,5 C 65 % 1016,6 hPa 0,0 l/m 13,7 km/h (3 Bft) W 0,93 h 0,203 mm 2,3 UV-I 522 W/m 3,2 C 5,4 C 23,1 km/h (4 Bft) 99,58 %
16.04.2017 12:00 10,1 C 58 % 1016,5 hPa 0,0 l/m 15,4 km/h (3 Bft) W 1,00 h 0,279 mm 2,7 UV-I 587 W/m 2,1 C 5,2 C 25,2 km/h (4 Bft) 95,94 %
16.04.2017 13:00 10,1 C 58 % 1016,4 hPa 0,0 l/m 16,2 km/h (3 Bft) W-SW 0,43 h 0,330 mm 1,8 UV-I 393 W/m 2,2 C 4,8 C 26,4 km/h (4 Bft) 97,75 %
16.04.2017 14:00 8,8 C 69 % 1016,5 hPa 0,0 l/m 19,9 km/h (4 Bft) W-SW 0,03 h 0,254 mm 1,2 UV-I 267 W/m 3,5 C 1,9 C 32,2 km/h (5 Bft) 98,72 %
16.04.2017 15:00 8,8 C 71 % 1016,3 hPa 0,0 l/m 19,2 km/h (3 Bft) W-SW 0,13 h 0,178 mm 1,3 UV-I 293 W/m 3,9 C 2,1 C 30,5 km/h (5 Bft) 98,48 %
16.04.2017 16:00 7,0 C 81 % 1016,6 hPa 0,2 l/m 16,6 km/h (3 Bft) W-SW 0,00 h 0,178 mm 0,4 UV-I 95 W/m 4,1 C 1,0 C 25,5 km/h (4 Bft) 97,74 %
16.04.2017 17:00 6,7 C 86 % 1016,4 hPa 0,0 l/m 16,1 km/h (3 Bft) SW 0,00 h 0,076 mm 0,5 UV-I 151 W/m 4,4 C 0,7 C 24,7 km/h (4 Bft) 97,84 %
16.04.2017 18:00 6,7 C 83 % 1016,6 hPa 0,2 l/m 19,3 km/h (3 Bft) SW 0,00 h 0,076 mm 0,0 UV-I 84 W/m 4,1 C -0,6 C 29,6 km/h (5 Bft) 98,97 %
16.04.2017 19:00 5,4 C 86 % 1017,0 hPa 0,0 l/m 18,7 km/h (3 Bft) SW 0,00 h 0,077 mm 0,0 UV-I 16 W/m 3,2 C -2,0 C 28,8 km/h (5 Bft) 97,54 %
16.04.2017 20:00 5,1 C 89 % 1017,5 hPa 0,0 l/m 15,2 km/h (3 Bft) SW 0,00 h 0,025 mm 0,0 UV-I 0 W/m 3,4 C -0,8 C 22,7 km/h (4 Bft) 94,63 %
16.04.2017 21:00 5,1 C 89 % 1018,1 hPa 0,0 l/m 11,4 km/h (2 Bft) SW 0,00 h 0,025 mm 0,0 UV-I 0 W/m 3,5 C 1,4 C 17,8 km/h (3 Bft) 97,47 %
16.04.2017 22:00 5,2 C 89 % 1018,3 hPa 0,0 l/m 13,1 km/h (3 Bft) SW 0,00 h 0,026 mm 0,0 UV-I 0 W/m 3,6 C 0,4 C 19,7 km/h (3 Bft) 97,92 %
16.04.2017 23:00 5,0 C 89 % 1018,6 hPa 0,0 l/m 12,4 km/h (3 Bft) W-SW 0,00 h 0,025 mm 0,0 UV-I 0 W/m 3,2 C 0,6 C 19,3 km/h (3 Bft) 96,32 %
Min-Datum _ 12.04.17 10.04.17 13.04.17 - 10.04.17 - - - - - 16.04.17 16.04.17 10.04.17 13.04.17
_ Min-Zeit 06:32 16:08 05:04 - 00:00 - - - - - 12:24 19:16 00:00 18:04
Minimum _ 4,0 C 38 % 1009,6 hPa - 0,0 km/h (0 Bft) - - - - - 1,0 C -5,0 C 0,0 km/h (0 Bft) 84,09 %
Max-Datum _ 10.04.17 10.04.17 11.04.17 16.04.17 16.04.17 - 15.04.17 10.04.17 10.04.17 15.04.17 10.04.17 10.04.17 13.04.17 10.04.17
_ Max-Zeit 16:00 07:22 21:44 03:00 14:34 - 06:25 14:00 12:39 11:34 14:28 16:12 11:36 00:00
Maximum _ 23,4 C 96 % 1022,8 hPa 1,8 l/m 29,7 km/h
W-SW (5 Bft)
- 0,08 h 0,457 mm 4,2 UV-I 1008 W/m 12,3 C 23,3 C 46,7 km/h
W (6 Bft)
100,00 %
Durchschnitt _ 10,8 C 73 % 1015,8 hPa #8,4 l/m 8,3 km/h (2 Bft) W-SW #38:13 h #17,551 mm 1,6 UV-I 261 W/m 5,9 C 8,9 C 13,5 km/h (3 Bft) 96,97 %